sensor_id;sensor_type;location;lat;lon;timestamp;P1;durP1;ratioP1;P2;durP2;ratioP2
24813;SDS011;12904;50.088;11.414;2022-08-05T00:00:17;3.85;;;3.53;;
24813;SDS011;12904;50.088;11.414;2022-08-05T00:02:44;4.38;;;3.95;;
24813;SDS011;12904;50.088;11.414;2022-08-05T00:05:13;5.03;;;3.70;;
24813;SDS011;12904;50.088;11.414;2022-08-05T00:07:38;3.80;;;3.50;;
24813;SDS011;12904;50.088;11.414;2022-08-05T00:10:04;5.03;;;3.85;;
24813;SDS011;12904;50.088;11.414;2022-08-05T00:12:30;4.45;;;4.15;;
24813;SDS011;12904;50.088;11.414;2022-08-05T00:14:56;4.75;;;4.05;;
24813;SDS011;12904;50.088;11.414;2022-08-05T00:17:21;4.13;;;3.75;;
24813;SDS011;12904;50.088;11.414;2022-08-05T00:19:47;4.68;;;4.28;;
24813;SDS011;12904;50.088;11.414;2022-08-05T00:22:13;6.00;;;3.65;;
24813;SDS011;12904;50.088;11.414;2022-08-05T00:24:39;4.03;;;3.72;;
24813;SDS011;12904;50.088;11.414;2022-08-05T00:27:04;5.38;;;4.07;;
24813;SDS011;12904;50.088;11.414;2022-08-05T00:29:30;7.28;;;4.35;;
24813;SDS011;12904;50.088;11.414;2022-08-05T00:31:56;4.30;;;3.88;;
24813;SDS011;12904;50.088;11.414;2022-08-05T00:34:22;4.45;;;4.05;;
24813;SDS011;12904;50.088;11.414;2022-08-05T00:36:47;5.32;;;4.30;;
24813;SDS011;12904;50.088;11.414;2022-08-05T00:39:13;5.05;;;4.45;;
24813;SDS011;12904;50.088;11.414;2022-08-05T00:41:39;6.75;;;4.05;;
24813;SDS011;12904;50.088;11.414;2022-08-05T00:44:08;6.38;;;4.22;;
24813;SDS011;12904;50.088;11.414;2022-08-05T00:46:34;7.25;;;4.30;;
24813;SDS011;12904;50.088;11.414;2022-08-05T00:49:00;4.18;;;3.85;;
24813;SDS011;12904;50.088;11.414;2022-08-05T00:51:25;6.72;;;4.57;;
24813;SDS011;12904;50.088;11.414;2022-08-05T00:53:51;4.72;;;4.30;;
24813;SDS011;12904;50.088;11.414;2022-08-05T00:56:17;4.40;;;4.00;;
24813;SDS011;12904;50.088;11.414;2022-08-05T00:58:43;6.78;;;3.60;;
24813;SDS011;12904;50.088;11.414;2022-08-05T01:01:09;8.45;;;3.58;;
24813;SDS011;12904;50.088;11.414;2022-08-05T01:03:36;4.65;;;3.55;;
24813;SDS011;12904;50.088;11.414;2022-08-05T01:06:03;3.75;;;3.45;;
24813;SDS011;12904;50.088;11.414;2022-08-05T01:08:29;5.20;;;3.65;;
24813;SDS011;12904;50.088;11.414;2022-08-05T01:10:55;7.22;;;3.58;;
24813;SDS011;12904;50.088;11.414;2022-08-05T01:13:32;3.88;;;3.58;;
24813;SDS011;12904;50.088;11.414;2022-08-05T01:16:06;3.53;;;3.22;;
24813;SDS011;12904;50.088;11.414;2022-08-05T01:18:39;4.03;;;3.67;;
24813;SDS011;12904;50.088;11.414;2022-08-05T01:21:28;4.40;;;3.67;;
24813;SDS011;12904;50.088;11.414;2022-08-05T01:29:56;3.88;;;3.58;;
24813;SDS011;12904;50.088;11.414;2022-08-05T01:32:25;5.72;;;3.50;;
24813;SDS011;12904;50.088;11.414;2022-08-05T01:34:55;5.18;;;3.53;;
24813;SDS011;12904;50.088;11.414;2022-08-05T01:40:13;4.10;;;3.50;;
24813;SDS011;12904;50.088;11.414;2022-08-05T01:42:42;8.38;;;3.47;;
24813;SDS011;12904;50.088;11.414;2022-08-05T01:45:09;3.80;;;3.50;;
24813;SDS011;12904;50.088;11.414;2022-08-05T01:47:39;4.00;;;3.67;;
24813;SDS011;12904;50.088;11.414;2022-08-05T01:50:07;4.35;;;3.85;;
24813;SDS011;12904;50.088;11.414;2022-08-05T01:52:37;5.05;;;3.50;;
24813;SDS011;12904;50.088;11.414;2022-08-05T01:55:07;4.05;;;3.75;;
24813;SDS011;12904;50.088;11.414;2022-08-05T01:57:37;5.40;;;3.42;;
24813;SDS011;12904;50.088;11.414;2022-08-05T02:00:05;4.47;;;4.10;;
24813;SDS011;12904;50.088;11.414;2022-08-05T02:02:34;3.35;;;3.15;;
24813;SDS011;12904;50.088;11.414;2022-08-05T02:05:06;5.03;;;3.85;;
24813;SDS011;12904;50.088;11.414;2022-08-05T02:07:35;3.92;;;3.50;;
24813;SDS011;12904;50.088;11.414;2022-08-05T02:10:01;4.43;;;4.03;;
24813;SDS011;12904;50.088;11.414;2022-08-05T02:15:06;4.35;;;3.95;;
24813;SDS011;12904;50.088;11.414;2022-08-05T02:17:37;4.13;;;3.60;;
24813;SDS011;12904;50.088;11.414;2022-08-05T02:20:10;3.70;;;3.50;;
24813;SDS011;12904;50.088;11.414;2022-08-05T02:22:42;3.92;;;3.58;;
24813;SDS011;12904;50.088;11.414;2022-08-05T02:25:16;3.55;;;3.25;;
24813;SDS011;12904;50.088;11.414;2022-08-05T02:27:43;4.05;;;3.65;;
24813;SDS011;12904;50.088;11.414;2022-08-05T02:30:13;4.30;;;3.90;;
24813;SDS011;12904;50.088;11.414;2022-08-05T02:32:40;3.88;;;3.58;;
24813;SDS011;12904;50.088;11.414;2022-08-05T02:35:12;4.43;;;4.03;;
24813;SDS011;12904;50.088;11.414;2022-08-05T02:37:43;3.72;;;3.53;;
24813;SDS011;12904;50.088;11.414;2022-08-05T02:40:10;4.20;;;3.50;;
24813;SDS011;12904;50.088;11.414;2022-08-05T02:42:38;4.13;;;3.67;;
24813;SDS011;12904;50.088;11.414;2022-08-05T02:45:04;5.53;;;3.65;;
24813;SDS011;12904;50.088;11.414;2022-08-05T02:47:33;3.85;;;3.55;;
24813;SDS011;12904;50.088;11.414;2022-08-05T02:50:01;4.28;;;3.78;;
24813;SDS011;12904;50.088;11.414;2022-08-05T02:52:28;3.78;;;3.47;;
24813;SDS011;12904;50.088;11.414;2022-08-05T02:54:55;3.80;;;3.50;;
24813;SDS011;12904;50.088;11.414;2022-08-05T02:57:23;4.55;;;3.75;;
24813;SDS011;12904;50.088;11.414;2022-08-05T02:59:50;3.78;;;3.55;;
24813;SDS011;12904;50.088;11.414;2022-08-05T03:02:21;3.58;;;3.38;;
24813;SDS011;12904;50.088;11.414;2022-08-05T03:04:52;3.85;;;3.45;;
24813;SDS011;12904;50.088;11.414;2022-08-05T03:07:20;4.03;;;3.60;;
24813;SDS011;12904;50.088;11.414;2022-08-05T03:09:46;4.43;;;3.83;;
24813;SDS011;12904;50.088;11.414;2022-08-05T03:12:32;3.75;;;3.45;;
24813;SDS011;12904;50.088;11.414;2022-08-05T03:14:58;3.75;;;3.50;;
24813;SDS011;12904;50.088;11.414;2022-08-05T03:17:24;7.95;;;4.25;;
24813;SDS011;12904;50.088;11.414;2022-08-05T03:19:50;3.78;;;3.58;;
24813;SDS011;12904;50.088;11.414;2022-08-05T03:22:16;4.40;;;4.07;;
24813;SDS011;12904;50.088;11.414;2022-08-05T03:24:42;3.88;;;3.35;;
24813;SDS011;12904;50.088;11.414;2022-08-05T03:27:10;4.13;;;3.72;;
24813;SDS011;12904;50.088;11.414;2022-08-05T03:29:36;4.53;;;3.60;;
24813;SDS011;12904;50.088;11.414;2022-08-05T03:32:04;4.88;;;4.47;;
24813;SDS011;12904;50.088;11.414;2022-08-05T03:34:32;5.70;;;3.83;;
24813;SDS011;12904;50.088;11.414;2022-08-05T03:36:59;3.90;;;3.25;;
24813;SDS011;12904;50.088;11.414;2022-08-05T03:39:25;4.05;;;3.75;;
24813;SDS011;12904;50.088;11.414;2022-08-05T03:41:51;4.07;;;3.55;;
24813;SDS011;12904;50.088;11.414;2022-08-05T03:44:16;4.40;;;3.60;;
24813;SDS011;12904;50.088;11.414;2022-08-05T03:46:42;4.20;;;3.90;;
24813;SDS011;12904;50.088;11.414;2022-08-05T03:49:08;4.55;;;4.25;;
24813;SDS011;12904;50.088;11.414;2022-08-05T03:51:35;6.68;;;4.15;;
24813;SDS011;12904;50.088;11.414;2022-08-05T03:56:37;3.55;;;3.00;;
24813;SDS011;12904;50.088;11.414;2022-08-05T03:59:15;3.47;;;3.00;;
24813;SDS011;12904;50.088;11.414;2022-08-05T04:01:50;6.72;;;3.35;;
24813;SDS011;12904;50.088;11.414;2022-08-05T04:04:18;4.65;;;2.83;;
24813;SDS011;12904;50.088;11.414;2022-08-05T04:06:45;7.03;;;2.92;;
24813;SDS011;12904;50.088;11.414;2022-08-05T04:09:11;3.08;;;2.78;;
24813;SDS011;12904;50.088;11.414;2022-08-05T04:11:38;4.40;;;3.25;;
24813;SDS011;12904;50.088;11.414;2022-08-05T04:14:04;4.15;;;3.72;;
24813;SDS011;12904;50.088;11.414;2022-08-05T04:16:31;4.18;;;3.78;;
24813;SDS011;12904;50.088;11.414;2022-08-05T04:18:59;4.30;;;3.17;;
24813;SDS011;12904;50.088;11.414;2022-08-05T04:21:25;3.80;;;3.17;;
24813;SDS011;12904;50.088;11.414;2022-08-05T04:23:51;4.63;;;3.20;;
24813;SDS011;12904;50.088;11.414;2022-08-05T04:26:17;3.38;;;3.08;;
24813;SDS011;12904;50.088;11.414;2022-08-05T04:28:43;6.18;;;3.85;;
24813;SDS011;12904;50.088;11.414;2022-08-05T04:31:09;4.40;;;3.00;;
24813;SDS011;12904;50.088;11.414;2022-08-05T04:33:35;3.95;;;3.47;;
24813;SDS011;12904;50.088;11.414;2022-08-05T04:36:01;3.45;;;3.15;;
24813;SDS011;12904;50.088;11.414;2022-08-05T04:38:27;5.07;;;3.70;;
24813;SDS011;12904;50.088;11.414;2022-08-05T04:40:53;3.70;;;3.40;;
24813;SDS011;12904;50.088;11.414;2022-08-05T04:43:18;4.38;;;3.78;;
24813;SDS011;12904;50.088;11.414;2022-08-05T04:45:44;5.28;;;3.28;;
24813;SDS011;12904;50.088;11.414;2022-08-05T04:48:10;4.70;;;3.33;;
24813;SDS011;12904;50.088;11.414;2022-08-05T04:50:41;3.22;;;2.92;;
24813;SDS011;12904;50.088;11.414;2022-08-05T04:55:35;3.75;;;3.45;;
24813;SDS011;12904;50.088;11.414;2022-08-05T04:58:01;6.13;;;4.03;;
24813;SDS011;12904;50.088;11.414;2022-08-05T05:00:27;5.00;;;3.58;;
24813;SDS011;12904;50.088;11.414;2022-08-05T05:02:53;4.45;;;3.88;;
24813;SDS011;12904;50.088;11.414;2022-08-05T05:05:18;6.70;;;4.00;;
24813;SDS011;12904;50.088;11.414;2022-08-05T05:07:44;3.55;;;3.22;;
24813;SDS011;12904;50.088;11.414;2022-08-05T05:10:10;3.50;;;3.20;;
24813;SDS011;12904;50.088;11.414;2022-08-05T05:12:35;4.78;;;3.15;;
24813;SDS011;12904;50.088;11.414;2022-08-05T05:15:01;5.50;;;2.85;;
24813;SDS011;12904;50.088;11.414;2022-08-05T05:17:27;7.43;;;3.03;;
24813;SDS011;12904;50.088;11.414;2022-08-05T05:19:53;3.72;;;3.20;;
24813;SDS011;12904;50.088;11.414;2022-08-05T05:22:21;5.00;;;3.22;;
24813;SDS011;12904;50.088;11.414;2022-08-05T05:24:47;6.95;;;3.95;;
24813;SDS011;12904;50.088;11.414;2022-08-05T05:27:12;6.68;;;6.07;;
24813;SDS011;12904;50.088;11.414;2022-08-05T05:29:38;7.85;;;7.15;;
24813;SDS011;12904;50.088;11.414;2022-08-05T05:32:04;9.98;;;6.30;;
24813;SDS011;12904;50.088;11.414;2022-08-05T05:34:30;7.97;;;7.28;;
24813;SDS011;12904;50.088;11.414;2022-08-05T05:36:56;7.47;;;6.60;;
24813;SDS011;12904;50.088;11.414;2022-08-05T05:39:21;9.05;;;5.53;;
24813;SDS011;12904;50.088;11.414;2022-08-05T05:41:50;5.53;;;4.97;;
24813;SDS011;12904;50.088;11.414;2022-08-05T05:44:15;10.73;;;4.57;;
24813;SDS011;12904;50.088;11.414;2022-08-05T05:46:41;5.30;;;4.80;;
24813;SDS011;12904;50.088;11.414;2022-08-05T05:49:07;6.80;;;5.68;;
24813;SDS011;12904;50.088;11.414;2022-08-05T05:51:32;12.88;;;5.22;;
24813;SDS011;12904;50.088;11.414;2022-08-05T05:53:58;8.00;;;3.60;;
24813;SDS011;12904;50.088;11.414;2022-08-05T05:56:27;11.93;;;2.92;;
24813;SDS011;12904;50.088;11.414;2022-08-05T05:58:54;10.38;;;3.08;;
24813;SDS011;12904;50.088;11.414;2022-08-05T06:01:19;4.40;;;2.75;;
24813;SDS011;12904;50.088;11.414;2022-08-05T06:03:45;6.90;;;2.78;;
24813;SDS011;12904;50.088;11.414;2022-08-05T06:06:11;4.53;;;2.83;;
24813;SDS011;12904;50.088;11.414;2022-08-05T06:08:38;5.60;;;3.25;;
24813;SDS011;12904;50.088;11.414;2022-08-05T06:11:04;8.32;;;3.75;;
24813;SDS011;12904;50.088;11.414;2022-08-05T06:13:30;4.00;;;3.28;;
24813;SDS011;12904;50.088;11.414;2022-08-05T06:15:55;7.25;;;3.38;;
24813;SDS011;12904;50.088;11.414;2022-08-05T06:18:21;5.78;;;3.20;;
24813;SDS011;12904;50.088;11.414;2022-08-05T06:20:47;6.10;;;3.25;;
24813;SDS011;12904;50.088;11.414;2022-08-05T06:23:12;14.80;;;4.18;;
24813;SDS011;12904;50.088;11.414;2022-08-05T06:25:38;7.95;;;3.42;;
24813;SDS011;12904;50.088;11.414;2022-08-05T06:28:04;7.57;;;3.65;;
24813;SDS011;12904;50.088;11.414;2022-08-05T06:30:29;8.25;;;4.28;;
24813;SDS011;12904;50.088;11.414;2022-08-05T06:32:55;6.57;;;3.45;;
24813;SDS011;12904;50.088;11.414;2022-08-05T06:35:21;5.18;;;3.13;;
24813;SDS011;12904;50.088;11.414;2022-08-05T06:37:46;9.27;;;3.80;;
24813;SDS011;12904;50.088;11.414;2022-08-05T06:40:12;8.93;;;3.70;;
24813;SDS011;12904;50.088;11.414;2022-08-05T06:42:39;5.00;;;3.28;;
24813;SDS011;12904;50.088;11.414;2022-08-05T06:45:04;10.27;;;3.40;;
24813;SDS011;12904;50.088;11.414;2022-08-05T06:47:30;13.57;;;3.58;;
24813;SDS011;12904;50.088;11.414;2022-08-05T06:49:56;11.02;;;3.45;;
24813;SDS011;12904;50.088;11.414;2022-08-05T06:52:22;2.58;;;2.38;;
24813;SDS011;12904;50.088;11.414;2022-08-05T06:54:47;11.05;;;2.33;;
24813;SDS011;12904;50.088;11.414;2022-08-05T06:57:13;2.83;;;2.50;;
24813;SDS011;12904;50.088;11.414;2022-08-05T06:59:40;4.90;;;2.10;;
24813;SDS011;12904;50.088;11.414;2022-08-05T07:02:06;7.50;;;1.90;;
24813;SDS011;12904;50.088;11.414;2022-08-05T07:04:35;5.78;;;2.30;;
24813;SDS011;12904;50.088;11.414;2022-08-05T07:07:00;4.65;;;2.58;;
24813;SDS011;12904;50.088;11.414;2022-08-05T07:09:26;3.75;;;1.70;;
24813;SDS011;12904;50.088;11.414;2022-08-05T07:11:52;4.18;;;1.60;;
24813;SDS011;12904;50.088;11.414;2022-08-05T07:14:19;4.75;;;1.65;;
24813;SDS011;12904;50.088;11.414;2022-08-05T07:17:04;3.47;;;1.60;;
24813;SDS011;12904;50.088;11.414;2022-08-05T07:19:30;3.40;;;2.08;;
24813;SDS011;12904;50.088;11.414;2022-08-05T07:21:56;2.30;;;1.35;;
24813;SDS011;12904;50.088;11.414;2022-08-05T07:24:22;4.95;;;1.70;;
24813;SDS011;12904;50.088;11.414;2022-08-05T07:26:48;4.50;;;1.40;;
24813;SDS011;12904;50.088;11.414;2022-08-05T07:29:14;4.93;;;1.65;;
24813;SDS011;12904;50.088;11.414;2022-08-05T07:31:40;6.70;;;1.50;;
24813;SDS011;12904;50.088;11.414;2022-08-05T07:34:06;6.20;;;1.50;;
24813;SDS011;12904;50.088;11.414;2022-08-05T07:36:31;5.65;;;1.52;;
24813;SDS011;12904;50.088;11.414;2022-08-05T07:39:01;3.40;;;1.23;;
24813;SDS011;12904;50.088;11.414;2022-08-05T07:41:29;2.53;;;1.20;;
24813;SDS011;12904;50.088;11.414;2022-08-05T07:43:56;1.55;;;1.20;;
24813;SDS011;12904;50.088;11.414;2022-08-05T07:46:22;1.60;;;1.02;;
24813;SDS011;12904;50.088;11.414;2022-08-05T07:48:50;2.58;;;1.08;;
24813;SDS011;12904;50.088;11.414;2022-08-05T07:51:15;2.72;;;1.17;;
24813;SDS011;12904;50.088;11.414;2022-08-05T07:53:41;5.15;;;1.20;;
24813;SDS011;12904;50.088;11.414;2022-08-05T07:56:07;3.15;;;1.10;;
24813;SDS011;12904;50.088;11.414;2022-08-05T07:58:33;1.60;;;1.00;;
24813;SDS011;12904;50.088;11.414;2022-08-05T08:00:58;4.97;;;1.30;;
24813;SDS011;12904;50.088;11.414;2022-08-05T08:03:24;1.63;;;1.02;;
24813;SDS011;12904;50.088;11.414;2022-08-05T08:05:50;2.45;;;1.33;;
24813;SDS011;12904;50.088;11.414;2022-08-05T08:08:16;3.40;;;1.15;;
24813;SDS011;12904;50.088;11.414;2022-08-05T08:10:42;9.13;;;1.33;;
24813;SDS011;12904;50.088;11.414;2022-08-05T08:13:08;1.95;;;1.20;;
24813;SDS011;12904;50.088;11.414;2022-08-05T08:15:34;2.78;;;1.10;;
24813;SDS011;12904;50.088;11.414;2022-08-05T08:18:00;3.65;;;1.15;;
24813;SDS011;12904;50.088;11.414;2022-08-05T08:20:27;2.13;;;1.00;;
24813;SDS011;12904;50.088;11.414;2022-08-05T08:22:56;5.57;;;1.20;;
24813;SDS011;12904;50.088;11.414;2022-08-05T08:25:25;1.35;;;1.00;;
24813;SDS011;12904;50.088;11.414;2022-08-05T08:27:52;3.57;;;1.17;;
24813;SDS011;12904;50.088;11.414;2022-08-05T08:30:22;2.15;;;0.95;;
24813;SDS011;12904;50.088;11.414;2022-08-05T08:32:48;2.05;;;1.13;;
24813;SDS011;12904;50.088;11.414;2022-08-05T08:35:14;2.90;;;1.10;;
24813;SDS011;12904;50.088;11.414;2022-08-05T08:37:39;1.60;;;1.00;;
24813;SDS011;12904;50.088;11.414;2022-08-05T08:40:05;8.65;;;1.17;;
24813;SDS011;12904;50.088;11.414;2022-08-05T08:42:31;1.20;;;1.00;;
24813;SDS011;12904;50.088;11.414;2022-08-05T08:44:57;1.17;;;1.08;;
24813;SDS011;12904;50.088;11.414;2022-08-05T08:47:25;2.35;;;0.98;;
24813;SDS011;12904;50.088;11.414;2022-08-05T08:49:52;1.10;;;1.00;;
24813;SDS011;12904;50.088;11.414;2022-08-05T08:52:23;1.85;;;1.00;;
24813;SDS011;12904;50.088;11.414;2022-08-05T08:54:53;1.88;;;0.82;;
24813;SDS011;12904;50.088;11.414;2022-08-05T08:57:19;2.40;;;1.08;;
24813;SDS011;12904;50.088;11.414;2022-08-05T08:59:46;4.95;;;1.10;;
24813;SDS011;12904;50.088;11.414;2022-08-05T09:02:13;2.72;;;1.15;;
24813;SDS011;12904;50.088;11.414;2022-08-05T09:04:40;3.47;;;1.45;;
24813;SDS011;12904;50.088;11.414;2022-08-05T09:07:06;2.72;;;0.90;;
24813;SDS011;12904;50.088;11.414;2022-08-05T09:09:35;3.58;;;1.23;;
24813;SDS011;12904;50.088;11.414;2022-08-05T09:12:02;3.63;;;1.20;;
24813;SDS011;12904;50.088;11.414;2022-08-05T09:14:33;4.25;;;1.30;;
24813;SDS011;12904;50.088;11.414;2022-08-05T09:17:07;3.65;;;1.52;;
24813;SDS011;12904;50.088;11.414;2022-08-05T09:19:34;2.53;;;1.33;;
24813;SDS011;12904;50.088;11.414;2022-08-05T09:22:00;2.17;;;1.27;;
24813;SDS011;12904;50.088;11.414;2022-08-05T09:24:26;4.72;;;1.23;;
24813;SDS011;12904;50.088;11.414;2022-08-05T09:26:55;1.75;;;1.10;;
24813;SDS011;12904;50.088;11.414;2022-08-05T09:29:36;9.15;;;1.30;;
24813;SDS011;12904;50.088;11.414;2022-08-05T09:32:06;2.47;;;0.95;;
24813;SDS011;12904;50.088;11.414;2022-08-05T09:34:48;2.90;;;1.23;;
24813;SDS011;12904;50.088;11.414;2022-08-05T09:37:19;4.43;;;1.20;;
24813;SDS011;12904;50.088;11.414;2022-08-05T09:39:46;3.22;;;1.65;;
24813;SDS011;12904;50.088;11.414;2022-08-05T09:42:16;1.40;;;1.30;;
24813;SDS011;12904;50.088;11.414;2022-08-05T09:44:44;2.60;;;1.15;;
24813;SDS011;12904;50.088;11.414;2022-08-05T09:49:45;1.38;;;0.98;;
24813;SDS011;12904;50.088;11.414;2022-08-05T09:54:58;1.90;;;0.90;;
24813;SDS011;12904;50.088;11.414;2022-08-05T09:57:35;2.20;;;1.10;;
24813;SDS011;12904;50.088;11.414;2022-08-05T10:00:14;1.25;;;0.75;;
24813;SDS011;12904;50.088;11.414;2022-08-05T10:02:46;0.90;;;0.60;;
24813;SDS011;12904;50.088;11.414;2022-08-05T10:05:14;2.30;;;1.00;;
24813;SDS011;12904;50.088;11.414;2022-08-05T10:10:19;1.27;;;0.82;;
24813;SDS011;12904;50.088;11.414;2022-08-05T10:12:56;3.38;;;0.82;;
24813;SDS011;12904;50.088;11.414;2022-08-05T10:15:31;1.50;;;0.77;;
24813;SDS011;12904;50.088;11.414;2022-08-05T10:18:11;0.77;;;0.57;;
24813;SDS011;12904;50.088;11.414;2022-08-05T10:23:10;1.45;;;0.70;;
24813;SDS011;12904;50.088;11.414;2022-08-05T10:25:36;1.60;;;0.90;;
24813;SDS011;12904;50.088;11.414;2022-08-05T10:28:02;1.35;;;0.85;;
24813;SDS011;12904;50.088;11.414;2022-08-05T10:30:29;3.65;;;0.98;;
24813;SDS011;12904;50.088;11.414;2022-08-05T10:32:56;2.25;;;0.80;;
24813;SDS011;12904;50.088;11.414;2022-08-05T10:35:23;2.15;;;0.65;;
24813;SDS011;12904;50.088;11.414;2022-08-05T10:37:49;1.63;;;0.70;;
24813;SDS011;12904;50.088;11.414;2022-08-05T10:40:18;2.42;;;0.60;;
24813;SDS011;12904;50.088;11.414;2022-08-05T10:43:12;0.70;;;0.70;;
24813;SDS011;12904;50.088;11.414;2022-08-05T10:46:07;1.55;;;0.80;;
24813;SDS011;12904;50.088;11.414;2022-08-05T10:51:11;1.80;;;0.70;;
24813;SDS011;12904;50.088;11.414;2022-08-05T10:53:38;1.80;;;0.70;;
24813;SDS011;12904;50.088;11.414;2022-08-05T10:56:05;2.10;;;0.80;;
24813;SDS011;12904;50.088;11.414;2022-08-05T10:58:31;2.38;;;0.60;;
24813;SDS011;12904;50.088;11.414;2022-08-05T11:00:57;1.13;;;0.50;;
24813;SDS011;12904;50.088;11.414;2022-08-05T11:03:23;0.50;;;0.50;;
24813;SDS011;12904;50.088;11.414;2022-08-05T11:06:09;2.67;;;0.63;;
24813;SDS011;12904;50.088;11.414;2022-08-05T11:08:36;1.10;;;0.70;;
24813;SDS011;12904;50.088;11.414;2022-08-05T11:14:00;0.93;;;0.70;;
24813;SDS011;12904;50.088;11.414;2022-08-05T11:16:28;0.65;;;0.60;;
24813;SDS011;12904;50.088;11.414;2022-08-05T11:19:43;1.85;;;0.70;;
24813;SDS011;12904;50.088;11.414;2022-08-05T11:21:51;2.15;;;0.70;;
24813;SDS011;12904;50.088;11.414;2022-08-05T11:26:48;1.67;;;0.70;;
24813;SDS011;12904;50.088;11.414;2022-08-05T11:29:37;2.83;;;0.75;;
24813;SDS011;12904;50.088;11.414;2022-08-05T11:34:53;2.40;;;0.70;;
24813;SDS011;12904;50.088;11.414;2022-08-05T11:40:08;1.73;;;0.80;;
24813;SDS011;12904;50.088;11.414;2022-08-05T11:42:34;2.03;;;0.80;;
24813;SDS011;12904;50.088;11.414;2022-08-05T11:45:05;3.08;;;0.80;;
24813;SDS011;12904;50.088;11.414;2022-08-05T11:47:32;1.20;;;0.80;;
24813;SDS011;12904;50.088;11.414;2022-08-05T11:50:00;1.27;;;0.80;;
24813;SDS011;12904;50.088;11.414;2022-08-05T11:52:27;2.85;;;1.00;;
24813;SDS011;12904;50.088;11.414;2022-08-05T11:54:54;4.15;;;1.17;;
24813;SDS011;12904;50.088;11.414;2022-08-05T11:57:20;0.75;;;0.70;;
24813;SDS011;12904;50.088;11.414;2022-08-05T11:59:51;2.35;;;0.90;;
24813;SDS011;12904;50.088;11.414;2022-08-05T12:02:22;2.25;;;0.82;;
24813;SDS011;12904;50.088;11.414;2022-08-05T12:04:52;1.45;;;0.82;;
24813;SDS011;12904;50.088;11.414;2022-08-05T12:07:18;2.00;;;1.00;;
24813;SDS011;12904;50.088;11.414;2022-08-05T12:09:47;1.00;;;0.82;;
24813;SDS011;12904;50.088;11.414;2022-08-05T12:12:22;1.02;;;0.80;;
24813;SDS011;12904;50.088;11.414;2022-08-05T12:14:49;1.67;;;0.80;;
24813;SDS011;12904;50.088;11.414;2022-08-05T12:17:15;2.38;;;0.63;;
24813;SDS011;12904;50.088;11.414;2022-08-05T12:19:42;1.40;;;0.80;;
24813;SDS011;12904;50.088;11.414;2022-08-05T12:22:18;1.88;;;0.70;;
24813;SDS011;12904;50.088;11.414;2022-08-05T12:24:48;1.75;;;0.80;;
24813;SDS011;12904;50.088;11.414;2022-08-05T12:27:33;4.78;;;0.95;;
24813;SDS011;12904;50.088;11.414;2022-08-05T12:30:05;2.50;;;0.90;;
24813;SDS011;12904;50.088;11.414;2022-08-05T12:32:33;1.08;;;0.80;;
24813;SDS011;12904;50.088;11.414;2022-08-05T12:35:07;1.58;;;0.80;;
24813;SDS011;12904;50.088;11.414;2022-08-05T12:37:33;3.25;;;0.80;;
24813;SDS011;12904;50.088;11.414;2022-08-05T12:39:59;1.30;;;0.88;;
24813;SDS011;12904;50.088;11.414;2022-08-05T12:42:27;2.67;;;1.13;;
24813;SDS011;12904;50.088;11.414;2022-08-05T12:45:07;2.28;;;1.00;;
24813;SDS011;12904;50.088;11.414;2022-08-05T12:47:34;0.90;;;0.90;;
24813;SDS011;12904;50.088;11.414;2022-08-05T12:50:10;1.13;;;0.90;;
24813;SDS011;12904;50.088;11.414;2022-08-05T12:52:37;1.42;;;0.82;;
24813;SDS011;12904;50.088;11.414;2022-08-05T12:55:27;1.42;;;0.90;;
24813;SDS011;12904;50.088;11.414;2022-08-05T12:57:51;1.63;;;0.90;;
24813;SDS011;12904;50.088;11.414;2022-08-05T13:00:19;1.27;;;1.00;;
24813;SDS011;12904;50.088;11.414;2022-08-05T13:02:46;0.95;;;0.88;;
24813;SDS011;12904;50.088;11.414;2022-08-05T13:05:12;1.00;;;0.90;;
24813;SDS011;12904;50.088;11.414;2022-08-05T13:07:41;2.00;;;0.90;;
24813;SDS011;12904;50.088;11.414;2022-08-05T13:10:09;2.25;;;0.98;;
24813;SDS011;12904;50.088;11.414;2022-08-05T13:12:43;3.10;;;1.00;;
24813;SDS011;12904;50.088;11.414;2022-08-05T13:15:10;2.22;;;0.98;;
24813;SDS011;12904;50.088;11.414;2022-08-05T13:17:37;2.10;;;1.13;;
24813;SDS011;12904;50.088;11.414;2022-08-05T13:20:04;2.08;;;1.05;;
24813;SDS011;12904;50.088;11.414;2022-08-05T13:22:31;2.25;;;1.08;;
24813;SDS011;12904;50.088;11.414;2022-08-05T13:25:05;2.00;;;0.85;;
24813;SDS011;12904;50.088;11.414;2022-08-05T13:27:34;6.78;;;1.00;;
24813;SDS011;12904;50.088;11.414;2022-08-05T13:30:05;1.00;;;0.88;;
24813;SDS011;12904;50.088;11.414;2022-08-05T13:32:35;1.02;;;0.90;;
24813;SDS011;12904;50.088;11.414;2022-08-05T13:35:01;1.75;;;1.10;;
24813;SDS011;12904;50.088;11.414;2022-08-05T13:37:27;2.67;;;1.00;;
24813;SDS011;12904;50.088;11.414;2022-08-05T13:39:53;0.90;;;0.90;;
24813;SDS011;12904;50.088;11.414;2022-08-05T13:42:19;1.40;;;0.80;;
24813;SDS011;12904;50.088;11.414;2022-08-05T13:44:49;0.88;;;0.88;;
24813;SDS011;12904;50.088;11.414;2022-08-05T13:47:19;1.38;;;1.05;;
24813;SDS011;12904;50.088;11.414;2022-08-05T13:49:46;2.15;;;1.00;;
24813;SDS011;12904;50.088;11.414;2022-08-05T13:52:20;2.08;;;1.00;;
24813;SDS011;12904;50.088;11.414;2022-08-05T13:54:47;2.50;;;1.10;;
24813;SDS011;12904;50.088;11.414;2022-08-05T13:57:13;3.58;;;0.90;;
24813;SDS011;12904;50.088;11.414;2022-08-05T13:59:39;1.10;;;1.00;;
24813;SDS011;12904;50.088;11.414;2022-08-05T14:02:06;1.15;;;0.98;;
24813;SDS011;12904;50.088;11.414;2022-08-05T14:04:38;2.17;;;1.02;;
24813;SDS011;12904;50.088;11.414;2022-08-05T14:07:25;5.05;;;1.40;;
24813;SDS011;12904;50.088;11.414;2022-08-05T14:09:52;3.90;;;1.20;;
24813;SDS011;12904;50.088;11.414;2022-08-05T14:12:18;1.33;;;1.10;;
24813;SDS011;12904;50.088;11.414;2022-08-05T14:14:44;3.95;;;1.30;;
24813;SDS011;12904;50.088;11.414;2022-08-05T14:17:10;1.10;;;0.90;;
24813;SDS011;12904;50.088;11.414;2022-08-05T14:19:36;2.58;;;1.00;;
24813;SDS011;12904;50.088;11.414;2022-08-05T14:22:01;1.55;;;1.20;;
24813;SDS011;12904;50.088;11.414;2022-08-05T14:24:27;1.33;;;1.00;;
24813;SDS011;12904;50.088;11.414;2022-08-05T14:26:56;2.00;;;0.90;;
24813;SDS011;12904;50.088;11.414;2022-08-05T14:29:22;1.20;;;1.08;;
24813;SDS011;12904;50.088;11.414;2022-08-05T14:31:48;1.42;;;0.90;;
24813;SDS011;12904;50.088;11.414;2022-08-05T14:34:13;1.10;;;1.00;;
24813;SDS011;12904;50.088;11.414;2022-08-05T14:36:39;1.50;;;0.90;;
24813;SDS011;12904;50.088;11.414;2022-08-05T14:39:05;8.65;;;1.00;;
24813;SDS011;12904;50.088;11.414;2022-08-05T14:41:31;2.88;;;1.00;;
24813;SDS011;12904;50.088;11.414;2022-08-05T14:43:59;2.08;;;0.93;;
24813;SDS011;12904;50.088;11.414;2022-08-05T14:46:28;3.75;;;1.05;;
24813;SDS011;12904;50.088;11.414;2022-08-05T14:48:54;2.63;;;0.90;;
24813;SDS011;12904;50.088;11.414;2022-08-05T14:51:21;1.60;;;1.10;;
24813;SDS011;12904;50.088;11.414;2022-08-05T14:53:47;2.22;;;1.00;;
24813;SDS011;12904;50.088;11.414;2022-08-05T14:56:16;1.20;;;0.85;;
24813;SDS011;12904;50.088;11.414;2022-08-05T14:58:41;1.25;;;0.57;;
24813;SDS011;12904;50.088;11.414;2022-08-05T15:01:07;0.73;;;0.70;;
24813;SDS011;12904;50.088;11.414;2022-08-05T15:03:33;1.85;;;0.80;;
24813;SDS011;12904;50.088;11.414;2022-08-05T15:05:59;1.25;;;0.80;;
24813;SDS011;12904;50.088;11.414;2022-08-05T15:08:24;0.77;;;0.77;;
24813;SDS011;12904;50.088;11.414;2022-08-05T15:10:50;1.27;;;1.00;;
24813;SDS011;12904;50.088;11.414;2022-08-05T15:13:16;3.80;;;0.90;;
24813;SDS011;12904;50.088;11.414;2022-08-05T15:15:43;0.77;;;0.73;;
24813;SDS011;12904;50.088;11.414;2022-08-05T15:18:09;0.70;;;0.70;;